createdAt,value
2022-09-16T00:01:42.548Z,14.40
2022-09-16T00:04:28.645Z,14.30
2022-09-16T00:07:14.793Z,14.40
2022-09-16T00:10:01.064Z,14.40
2022-09-16T00:12:48.061Z,14.30
2022-09-16T00:15:34.629Z,14.30
2022-09-16T00:18:21.050Z,14.30
2022-09-16T00:21:09.311Z,14.30
2022-09-16T00:23:56.592Z,14.30
2022-09-16T00:26:45.721Z,14.30
2022-09-16T00:29:31.608Z,14.30
2022-09-16T00:32:17.706Z,14.30
2022-09-16T00:35:03.838Z,14.30
2022-09-16T00:37:50.124Z,14.30
2022-09-16T00:40:43.788Z,14.30
2022-09-16T00:43:46.259Z,14.30
2022-09-16T00:46:43.950Z,14.30
2022-09-16T00:49:31.210Z,14.30
2022-09-16T00:52:18.397Z,14.30
2022-09-16T00:55:08.457Z,14.20
2022-09-16T00:57:57.813Z,14.20
2022-09-16T01:00:44.419Z,14.20
2022-09-16T01:03:31.508Z,14.20
2022-09-16T01:06:19.444Z,14.20
2022-09-16T01:09:06.023Z,14.20
2022-09-16T01:11:53.322Z,14.20
2022-09-16T01:14:55.603Z,14.20
2022-09-16T01:18:09.883Z,14.20
2022-09-16T01:20:58.614Z,14.20
2022-09-16T01:24:12.386Z,14.10
2022-09-16T01:27:15.645Z,14.10
2022-09-16T01:30:32.076Z,14.10
2022-09-16T01:33:26.083Z,14.10
2022-09-16T01:36:37.041Z,14.10
2022-09-16T01:39:35.254Z,14.10
2022-09-16T01:42:40.118Z,14.10
2022-09-16T01:45:46.620Z,14.00
2022-09-16T01:49:00.604Z,14.00
2022-09-16T01:52:09.984Z,14.00
2022-09-16T01:55:03.600Z,14.00
2022-09-16T01:57:55.809Z,13.90
2022-09-16T02:00:45.637Z,13.90
2022-09-16T02:03:35.940Z,13.90
2022-09-16T02:06:25.597Z,13.80
2022-09-16T02:09:18.085Z,13.80
2022-09-16T02:12:09.661Z,13.70
2022-09-16T02:15:00.535Z,13.70
2022-09-16T02:17:51.794Z,13.50
2022-09-16T02:20:44.992Z,13.50
2022-09-16T02:23:37.539Z,13.50
2022-09-16T02:26:37.974Z,13.40
2022-09-16T02:29:27.339Z,13.40
2022-09-16T02:32:15.128Z,13.30
2022-09-16T02:35:02.747Z,13.30
2022-09-16T02:38:14.136Z,13.30
2022-09-16T02:41:01.232Z,13.20
2022-09-16T02:43:47.427Z,13.20
2022-09-16T02:46:33.188Z,13.20
2022-09-16T02:49:40.923Z,13.20
2022-09-16T02:52:53.505Z,13.20
2022-09-16T02:55:54.550Z,13.20
2022-09-16T02:58:40.747Z,13.10
2022-09-16T03:01:28.799Z,13.10
2022-09-16T03:04:18.001Z,13.10
2022-09-16T03:07:07.827Z,13.00
2022-09-16T03:09:54.099Z,13.00
2022-09-16T03:12:52.325Z,12.90
2022-09-16T03:16:02.841Z,13.00
2022-09-16T03:18:58.342Z,13.00
2022-09-16T03:21:58.977Z,13.00
2022-09-16T03:25:06.334Z,13.00
2022-09-16T03:28:13.601Z,13.00
2022-09-16T03:31:15.155Z,13.00
2022-09-16T03:34:20.249Z,13.00
2022-09-16T03:37:15.058Z,13.00
2022-09-16T03:40:08.622Z,13.10
2022-09-16T03:42:54.636Z,13.10
2022-09-16T03:45:42.590Z,13.10
2022-09-16T03:48:28.716Z,13.10
2022-09-16T03:51:15.888Z,13.10
2022-09-16T03:54:01.635Z,13.10
2022-09-16T03:56:47.700Z,13.10
2022-09-16T03:59:33.923Z,13.10
2022-09-16T04:02:20.209Z,13.10
2022-09-16T04:05:08.145Z,13.20
2022-09-16T04:07:54.076Z,13.20
2022-09-16T04:10:39.915Z,13.20
2022-09-16T04:13:26.575Z,13.20
2022-09-16T04:16:19.635Z,13.20
2022-09-16T04:19:07.069Z,13.20
2022-09-16T04:21:52.977Z,13.10
2022-09-16T04:24:39.269Z,13.10
2022-09-16T04:27:25.931Z,13.00
2022-09-16T04:30:12.968Z,13.00
2022-09-16T04:32:59.136Z,12.90
2022-09-16T04:35:48.398Z,12.90
2022-09-16T04:38:35.611Z,12.80
2022-09-16T04:41:24.284Z,12.80
2022-09-16T04:44:11.988Z,12.80
2022-09-16T04:46:58.515Z,12.80
2022-09-16T04:49:44.994Z,12.80
2022-09-16T04:52:31.713Z,12.80
2022-09-16T04:55:19.022Z,12.80
2022-09-16T04:58:04.997Z,12.80
2022-09-16T05:00:51.528Z,12.80
2022-09-16T05:03:37.524Z,12.70
2022-09-16T05:06:29.226Z,12.70
2022-09-16T05:09:15.057Z,12.70
2022-09-16T05:12:01.852Z,12.70
2022-09-16T05:14:48.086Z,12.60
2022-09-16T05:17:50.418Z,12.60
2022-09-16T05:20:38.787Z,12.60
2022-09-16T05:23:25.007Z,12.60
2022-09-16T05:26:14.396Z,12.60
2022-09-16T05:29:02.315Z,12.60
2022-09-16T05:31:48.549Z,12.60
2022-09-16T05:34:36.832Z,12.60
2022-09-16T05:37:24.473Z,12.50
2022-09-16T05:40:10.763Z,12.50
2022-09-16T05:42:56.784Z,12.50
2022-09-16T05:45:42.845Z,12.50
2022-09-16T05:48:29.160Z,12.50
2022-09-16T05:51:20.778Z,12.50
2022-09-16T05:54:06.873Z,12.40
2022-09-16T05:56:53.571Z,12.40
2022-09-16T05:59:39.665Z,12.30
2022-09-16T06:02:25.996Z,12.30
2022-09-16T06:05:11.805Z,12.30
2022-09-16T06:08:03.867Z,12.30
2022-09-16T06:10:49.863Z,12.40
2022-09-16T06:13:39.305Z,12.40
2022-09-16T06:16:26.982Z,12.40
2022-09-16T06:19:18.275Z,12.40
2022-09-16T06:22:04.688Z,12.50
2022-09-16T06:24:51.683Z,12.50
2022-09-16T06:27:37.995Z,12.60
2022-09-16T06:30:26.080Z,12.60
2022-09-16T06:33:16.448Z,12.60
2022-09-16T06:36:08.004Z,12.60
2022-09-16T06:38:53.849Z,12.60
2022-09-16T06:41:40.660Z,12.60
2022-09-16T06:44:27.005Z,12.60
2022-09-16T06:47:13.641Z,12.60
2022-09-16T06:50:00.492Z,12.60
2022-09-16T06:52:51.074Z,12.60
2022-09-16T06:55:37.034Z,12.60
2022-09-16T06:58:31.588Z,12.60
2022-09-16T07:01:23.386Z,12.60
2022-09-16T07:04:11.066Z,12.60
2022-09-16T07:07:09.198Z,12.70
2022-09-16T07:09:57.238Z,12.70
2022-09-16T07:12:43.561Z,12.70
2022-09-16T07:15:29.616Z,12.70
2022-09-16T07:18:15.563Z,12.70
2022-09-16T07:21:06.746Z,12.70
2022-09-16T07:23:55.517Z,12.70
2022-09-16T07:26:42.936Z,12.70
2022-09-16T07:29:28.880Z,12.80
2022-09-16T07:32:14.847Z,12.80
2022-09-16T07:35:01.573Z,12.90
2022-09-16T07:37:47.941Z,13.00
2022-09-16T07:40:34.602Z,13.10
2022-09-16T07:43:22.859Z,13.20
2022-09-16T07:46:11.788Z,13.20
2022-09-16T07:48:59.726Z,13.40
2022-09-16T07:51:45.880Z,13.50
2022-09-16T07:54:32.423Z,13.60
2022-09-16T07:57:18.588Z,13.80
2022-09-16T08:00:05.304Z,13.90
2022-09-16T08:02:57.936Z,14.00
2022-09-16T08:05:44.481Z,14.10
2022-09-16T08:08:31.502Z,14.20
2022-09-16T08:11:17.510Z,14.30
2022-09-16T08:14:03.889Z,14.40
2022-09-16T08:16:52.614Z,14.50
2022-09-16T08:19:39.315Z,14.40
2022-09-16T08:22:25.770Z,14.40
2022-09-16T08:25:12.020Z,14.30
2022-09-16T08:27:58.124Z,14.30
2022-09-16T08:30:44.724Z,14.30
2022-09-16T08:33:30.933Z,14.20
2022-09-16T08:36:20.037Z,14.20
2022-09-16T08:39:06.444Z,14.20
2022-09-16T08:41:52.527Z,14.30
2022-09-16T08:44:45.210Z,14.30
2022-09-16T08:47:50.509Z,14.50
2022-09-16T08:50:41.723Z,14.50
2022-09-16T08:53:51.688Z,14.60
2022-09-16T08:56:40.384Z,14.70
2022-09-16T08:59:34.002Z,14.70
2022-09-16T09:02:48.430Z,14.80
2022-09-16T09:05:56.270Z,14.80
2022-09-16T09:08:47.855Z,14.70
2022-09-16T09:12:02.472Z,14.60
2022-09-16T09:15:28.244Z,14.60
2022-09-16T09:18:33.157Z,14.50
2022-09-16T09:21:39.407Z,14.40
2022-09-16T09:24:43.863Z,14.30
2022-09-16T09:27:51.033Z,14.30
2022-09-16T09:30:42.560Z,14.40
2022-09-16T09:37:01.668Z,14.70
2022-09-16T09:39:56.382Z,14.80
2022-09-16T09:43:17.109Z,15.00
2022-09-16T09:46:26.505Z,15.10
2022-09-16T09:49:26.137Z,15.10
2022-09-16T09:52:28.949Z,15.20
2022-09-16T09:55:18.273Z,15.20
2022-09-16T09:58:22.933Z,15.30
2022-09-16T10:01:11.228Z,15.30
2022-09-16T10:03:58.849Z,15.20
2022-09-16T10:06:46.055Z,15.20
2022-09-16T10:09:33.542Z,15.20
2022-09-16T10:12:35.090Z,15.20
2022-09-16T10:15:30.738Z,15.20
2022-09-16T10:18:29.751Z,15.20
2022-09-16T10:21:20.173Z,15.10
2022-09-16T10:24:06.366Z,15.00
2022-09-16T10:26:52.433Z,15.00
2022-09-16T10:29:38.389Z,15.00
2022-09-16T10:32:24.343Z,15.00
2022-09-16T10:35:17.056Z,15.00
2022-09-16T10:38:13.137Z,15.00
2022-09-16T10:41:08.560Z,15.00
2022-09-16T10:43:59.369Z,15.00
2022-09-16T10:46:55.464Z,15.00
2022-09-16T10:49:46.344Z,15.10
2022-09-16T10:52:42.233Z,15.10
2022-09-16T10:55:38.636Z,15.10
2022-09-16T10:58:24.845Z,15.10
2022-09-16T11:01:14.827Z,15.20
2022-09-16T11:04:08.060Z,15.20
2022-09-16T11:07:33.080Z,15.30
2022-09-16T11:10:45.469Z,15.50
2022-09-16T11:14:13.046Z,15.70
2022-09-16T11:17:11.340Z,15.90
2022-09-16T11:20:22.810Z,16.10
2022-09-16T11:23:23.694Z,16.20
2022-09-16T11:26:37.050Z,16.20
2022-09-16T11:29:37.424Z,16.10
2022-09-16T11:32:55.195Z,16.10
2022-09-16T11:35:57.716Z,16.10
2022-09-16T11:38:55.770Z,16.30
2022-09-16T11:41:48.168Z,16.40
2022-09-16T11:44:43.092Z,16.40
2022-09-16T11:47:41.184Z,16.30
2022-09-16T11:50:35.027Z,16.30
2022-09-16T11:53:42.979Z,16.40
2022-09-16T11:56:29.196Z,16.50
2022-09-16T11:59:38.402Z,16.60
2022-09-16T12:02:53.255Z,16.60
2022-09-16T12:05:50.157Z,16.60
2022-09-16T12:09:00.680Z,16.40
2022-09-16T12:11:52.136Z,16.40
2022-09-16T12:14:43.803Z,16.60
2022-09-16T12:17:39.117Z,16.70
2022-09-16T12:20:40.384Z,16.80
2022-09-16T12:23:34.825Z,16.80
2022-09-16T12:26:41.948Z,16.80
2022-09-16T12:29:55.200Z,16.80
2022-09-16T12:33:02.624Z,16.80
2022-09-16T12:36:09.327Z,16.70
2022-09-16T12:38:59.334Z,16.60
2022-09-16T12:42:06.340Z,16.50
2022-09-16T12:45:05.060Z,16.50
2022-09-16T12:48:18.761Z,16.40
2022-09-16T12:51:13.918Z,16.50
2022-09-16T12:54:22.169Z,16.60
2022-09-16T12:57:32.496Z,16.90
2022-09-16T13:00:31.788Z,16.90
2022-09-16T13:03:24.015Z,16.90
2022-09-16T13:06:35.502Z,16.70
2022-09-16T13:09:33.146Z,16.60
2022-09-16T13:12:44.660Z,16.60
2022-09-16T13:15:39.140Z,16.70
2022-09-16T13:18:38.087Z,16.70
2022-09-16T13:21:28.529Z,16.80
2022-09-16T13:24:24.075Z,16.80
2022-09-16T13:27:32.154Z,16.80
2022-09-16T13:30:29.117Z,16.80
2022-09-16T13:33:18.260Z,16.70
2022-09-16T13:36:19.332Z,16.70
2022-09-16T13:39:11.425Z,16.80
2022-09-16T13:42:09.738Z,17.10
2022-09-16T13:44:55.916Z,17.50
2022-09-16T13:47:49.385Z,17.70
2022-09-16T13:50:36.222Z,17.80
2022-09-16T13:53:32.956Z,17.90
2022-09-16T13:56:37.073Z,17.80
2022-09-16T13:59:57.214Z,17.50
2022-09-16T14:03:00.962Z,17.30
2022-09-16T14:05:56.283Z,17.40
2022-09-16T14:09:05.216Z,17.40
2022-09-16T14:12:03.815Z,17.40
2022-09-16T14:14:50.420Z,17.60
2022-09-16T14:17:45.651Z,17.90
2022-09-16T14:20:35.193Z,18.20
2022-09-16T14:23:24.862Z,18.50
2022-09-16T14:26:19.254Z,18.70
2022-09-16T14:29:06.288Z,18.90
2022-09-16T14:31:55.029Z,18.90
2022-09-16T14:34:41.384Z,18.80
2022-09-16T14:37:30.849Z,18.60
2022-09-16T14:40:20.700Z,18.30
2022-09-16T14:43:14.722Z,18.10
2022-09-16T14:46:01.710Z,17.90
2022-09-16T14:48:48.910Z,17.90
2022-09-16T14:51:35.656Z,17.90
2022-09-16T14:54:24.033Z,17.90
2022-09-16T14:57:23.001Z,18.00
2022-09-16T15:00:15.943Z,18.20
2022-09-16T15:03:44.779Z,18.50
2022-09-16T15:06:39.420Z,18.80
2022-09-16T15:10:09.072Z,19.30
2022-09-16T15:13:02.752Z,19.60
2022-09-16T15:16:02.817Z,19.90
2022-09-16T15:18:53.424Z,20.20
2022-09-16T15:21:43.704Z,20.20
2022-09-16T15:24:33.289Z,20.10
2022-09-16T15:27:26.701Z,19.80
2022-09-16T15:30:26.883Z,19.40
2022-09-16T15:33:34.862Z,19.10
2022-09-16T15:36:40.898Z,18.70
2022-09-16T15:39:38.771Z,18.70
2022-09-16T15:42:25.686Z,19.20
2022-09-16T15:45:18.004Z,19.90
2022-09-16T15:48:20.872Z,20.70
2022-09-16T15:51:10.689Z,21.70
2022-09-16T15:54:17.119Z,22.40
2022-09-16T15:57:15.438Z,22.80
2022-09-16T16:00:13.109Z,22.80
2022-09-16T16:03:05.464Z,22.60
2022-09-16T16:05:53.532Z,22.00
2022-09-16T16:08:50.163Z,21.20
2022-09-16T16:11:36.480Z,20.40
2022-09-16T16:14:24.480Z,19.70
2022-09-16T16:17:17.184Z,19.20
2022-09-16T16:20:03.900Z,18.90
2022-09-16T16:22:49.833Z,18.60
2022-09-16T16:25:36.035Z,18.40
2022-09-16T16:28:21.995Z,18.30
2022-09-16T16:31:14.458Z,18.00
2022-09-16T16:34:00.684Z,17.80
2022-09-16T16:36:46.896Z,17.60
2022-09-16T16:39:33.299Z,17.40
2022-09-16T16:42:19.896Z,17.10
2022-09-16T16:45:06.712Z,16.90
2022-09-16T16:47:53.160Z,16.60
2022-09-16T16:50:39.047Z,16.50
2022-09-16T16:53:25.707Z,16.40
2022-09-16T16:56:15.561Z,16.40
2022-09-16T16:59:01.547Z,16.40
2022-09-16T17:01:50.291Z,16.30
2022-09-16T17:04:36.700Z,16.20
2022-09-16T17:07:27.355Z,16.10
2022-09-16T17:10:14.333Z,16.00
2022-09-16T17:13:00.316Z,15.70
2022-09-16T17:15:46.385Z,15.60
2022-09-16T17:18:35.579Z,15.40
2022-09-16T17:21:24.815Z,15.40
2022-09-16T17:24:11.115Z,15.20
2022-09-16T17:26:57.268Z,15.20
2022-09-16T17:29:43.526Z,15.20
2022-09-16T17:32:29.349Z,15.10
2022-09-16T17:35:15.945Z,15.10
2022-09-16T17:38:08.943Z,15.10
2022-09-16T17:41:08.166Z,15.00
2022-09-16T17:43:58.564Z,14.90
2022-09-16T17:46:45.818Z,14.90
2022-09-16T17:49:32.371Z,14.80
2022-09-16T17:52:18.455Z,14.80
2022-09-16T17:55:04.720Z,14.70
2022-09-16T17:57:50.591Z,14.60
2022-09-16T18:00:37.729Z,14.60
2022-09-16T18:03:24.170Z,14.50
2022-09-16T18:06:11.266Z,14.40
2022-09-16T18:09:00.940Z,14.40
2022-09-16T18:11:47.024Z,14.30
2022-09-16T18:14:33.376Z,14.30
2022-09-16T18:17:19.634Z,14.20
2022-09-16T18:20:07.366Z,14.10
2022-09-16T18:22:53.905Z,14.20
2022-09-16T18:25:39.853Z,14.10
2022-09-16T18:28:25.793Z,14.00
2022-09-16T18:31:14.368Z,14.00
2022-09-16T18:34:00.675Z,13.90
2022-09-16T18:36:46.683Z,13.90
2022-09-16T18:39:32.842Z,13.80
2022-09-16T18:42:20.951Z,13.80
2022-09-16T18:45:07.280Z,13.70
2022-09-16T18:47:54.760Z,13.70
2022-09-16T18:50:40.845Z,13.70
2022-09-16T18:53:26.856Z,13.70
2022-09-16T18:56:15.743Z,13.60
2022-09-16T18:59:23.425Z,13.60
2022-09-16T19:02:11.310Z,13.50
2022-09-16T19:04:57.311Z,13.50
2022-09-16T19:07:43.496Z,13.40
2022-09-16T19:10:29.885Z,13.40
2022-09-16T19:13:16.167Z,13.40
2022-09-16T19:16:02.443Z,13.30
2022-09-16T19:18:53.276Z,13.20
2022-09-16T19:21:40.959Z,13.20
2022-09-16T19:24:27.143Z,13.10
2022-09-16T19:27:13.278Z,13.10
2022-09-16T19:29:59.938Z,13.10
2022-09-16T19:32:45.840Z,13.00
2022-09-16T19:35:32.865Z,13.00
2022-09-16T19:38:19.736Z,13.00
2022-09-16T19:41:05.906Z,12.90
2022-09-16T19:43:56.689Z,12.90
2022-09-16T19:46:44.920Z,12.80
2022-09-16T19:49:30.943Z,12.80
2022-09-16T19:52:16.723Z,12.80
2022-09-16T19:55:02.774Z,12.70
2022-09-16T19:57:48.660Z,12.70
2022-09-16T20:00:55.005Z,12.70
2022-09-16T20:03:43.752Z,12.60
2022-09-16T20:06:34.563Z,12.60
2022-09-16T20:09:20.680Z,12.60
2022-09-16T20:12:06.561Z,12.50
2022-09-16T20:14:52.398Z,12.50
2022-09-16T20:17:38.929Z,12.50
2022-09-16T20:20:25.524Z,12.40
2022-09-16T20:23:12.059Z,12.40
2022-09-16T20:25:59.771Z,12.40
2022-09-16T20:28:50.188Z,12.30
2022-09-16T20:31:37.255Z,12.30
2022-09-16T20:34:24.331Z,12.30
2022-09-16T20:37:10.916Z,12.30
2022-09-16T20:39:56.875Z,12.30
2022-09-16T20:42:42.771Z,12.30
2022-09-16T20:45:28.680Z,12.30
2022-09-16T20:48:14.472Z,12.20
2022-09-16T20:51:09.402Z,12.10
2022-09-16T20:53:58.158Z,12.10
2022-09-16T20:56:47.367Z,12.10
2022-09-16T20:59:33.742Z,12.10
2022-09-16T21:02:22.890Z,12.00
2022-09-16T21:05:09.440Z,12.00
2022-09-16T21:07:57.860Z,12.00
2022-09-16T21:10:44.436Z,12.00
2022-09-16T21:13:31.229Z,11.90
2022-09-16T21:16:17.461Z,11.90
2022-09-16T21:19:09.449Z,11.90
2022-09-16T21:21:56.581Z,11.90
2022-09-16T21:24:42.840Z,11.90
2022-09-16T21:27:39.840Z,11.90
2022-09-16T21:30:26.935Z,11.90
2022-09-16T21:33:14.181Z,11.80
2022-09-16T21:36:00.433Z,11.80
2022-09-16T21:38:46.929Z,11.80
2022-09-16T21:41:33.919Z,11.80
2022-09-16T21:44:22.686Z,11.70
2022-09-16T21:47:14.798Z,11.70
2022-09-16T21:50:02.697Z,11.70
2022-09-16T21:52:49.403Z,11.70
2022-09-16T21:55:35.654Z,11.60
2022-09-16T21:58:22.291Z,11.60
2022-09-16T22:01:09.668Z,11.60
2022-09-16T22:04:03.402Z,11.60
2022-09-16T22:06:51.075Z,11.50
2022-09-16T22:09:37.840Z,11.50
2022-09-16T22:12:23.928Z,11.50
2022-09-16T22:15:10.252Z,11.40
2022-09-16T22:17:56.424Z,11.40
2022-09-16T22:20:42.713Z,11.40
2022-09-16T22:23:28.740Z,11.30
2022-09-16T22:26:16.409Z,11.30
2022-09-16T22:29:02.949Z,11.30
2022-09-16T22:31:49.400Z,11.30
2022-09-16T22:34:35.735Z,11.20
2022-09-16T22:37:22.399Z,11.20
2022-09-16T22:40:09.696Z,11.20
2022-09-16T22:42:56.636Z,11.20
2022-09-16T22:45:43.228Z,11.20
2022-09-16T22:48:29.895Z,11.10
2022-09-16T22:51:17.652Z,11.10
2022-09-16T22:54:04.467Z,11.10
2022-09-16T22:56:50.752Z,11.10
2022-09-16T22:59:36.755Z,11.10
2022-09-16T23:02:23.587Z,11.00
2022-09-16T23:05:10.276Z,11.00
2022-09-16T23:07:56.272Z,11.00
2022-09-16T23:10:42.110Z,11.00
2022-09-16T23:13:28.443Z,11.00
2022-09-16T23:16:17.936Z,11.00
2022-09-16T23:19:08.452Z,10.90
2022-09-16T23:21:54.496Z,10.90
2022-09-16T23:24:40.519Z,10.90
2022-09-16T23:27:26.372Z,10.90
2022-09-16T23:30:12.626Z,10.90
2022-09-16T23:32:59.224Z,10.80
2022-09-16T23:35:48.003Z,10.80
2022-09-16T23:38:35.631Z,10.80
2022-09-16T23:41:27.438Z,10.80
2022-09-16T23:44:14.831Z,10.80
2022-09-16T23:47:00.867Z,10.80
2022-09-16T23:49:46.721Z,10.80
2022-09-16T23:52:35.674Z,10.80
2022-09-16T23:55:22.512Z,10.70
2022-09-16T23:58:08.791Z,10.80
